Weather Top, Arizona (BMGR) Weather observations

Data are for 10 minute period ending at time listed.
 Day   Time   Solar   Ave.   Ave.  Ave.  Vector  Max.   Total    
  of    of     Rad.   Air    Rel.  Wind   Wind   Wind  Precip.   
Year   Day            Temp.  Hum.  Speed  Dir.   Gust            
2026   (MST)  Kw/m2    F      %     mph   deg.    mph    in.     
-----------------------------------------------------------------
 244    0:00   0.00   76.4    67   12.6   117    16.6    0.00 
 244    0:05   0.00   76.4    67   12.4   116    16.6    0.00 
 244    0:10   0.00   76.3    67   11.9   118    16.6    0.00 
 244    0:15   0.00   76.3    67   11.0   115    17.2    0.00 
 244    0:20   0.00   76.2    67   10.1   114    15.5    0.00 
 244    0:25   0.00   76.1    67    9.4   116    12.7    0.00 
 244    0:30   0.00   76.0    68    9.6   114    14.4    0.00 
 244    0:35   0.00   76.0    68   10.5   114    14.4    0.00 
 244    0:40   0.00   76.1    69   10.1   113    15.5    0.00 
 244    0:45   0.00   76.1    69    8.9   111    12.1    0.00 
 244    0:50   0.00   76.0    68    9.0   107    12.1    0.00 
 244    0:55   0.00   76.2    68    8.7   109    11.0    0.00 
 244    1:00   0.00   76.4    68    8.2   113    11.0    0.00 
 244    1:05   0.00   76.6    67    8.2   116    10.5    0.00 
 244    1:10   0.00   76.6    67    8.0   109    10.5    0.00 
 244    1:15   0.00   76.4    68    8.3   109    11.6    0.00 
 244    1:20   0.00   76.4    68    7.7   115     9.9    0.00 
 244    1:25   0.00   76.4    68    7.5   128    11.0    0.00 
 244    1:30   0.00   76.1    69    6.7   132     9.3    0.00 
 244    1:35   0.00   75.5    70    6.8   126     9.9    0.00 
 244    1:40   0.00   75.1    71    7.8   119    10.5    0.00 
 244    1:45   0.00   74.8    72    7.4   114     9.9    0.00 
 244    1:50   0.00   74.8    72    7.6   117     9.9    0.00 
 244    1:55   0.00   74.7    73    7.5   119     9.9    0.00 
 244    2:00   0.00   74.8    73    8.2   118     9.9    0.00 
 244    2:05   0.00   74.7    74    8.5   120    11.6    0.00 
 244    2:10   0.00   74.5    74    7.5   123     9.3    0.00 
 244    2:15   0.00   74.4    75    7.6   122     9.9    0.00 
 244    2:20   0.00   74.3    75    6.4   121     8.8    0.00 
 244    2:25   0.00   74.2    75    6.1   122     7.7    0.00 
 244    2:30   0.00   74.3    75    6.5   121     8.2    0.00 
 244    2:35   0.00   74.2    74    6.2   129     8.2    0.00 
 244    2:40   0.00   74.2    74    6.2   123     8.2    0.00 
 244    2:45   0.00   74.2    74    6.0   122     8.2    0.00 
 244    2:50   0.00   74.4    73    6.3   121     7.7    0.00 
 244    2:55   0.00   74.4    73    6.3   117     8.2    0.00 
 244    3:00   0.00   74.8    71    6.9   120     8.8    0.00 
 244    3:05   0.00   74.8    71    6.3   118     8.2    0.00 
 244    3:10   0.00   74.7    71    6.1   124     8.8    0.00 
 244    3:15   0.00   74.5    72    5.2   143     7.7    0.00 
 244    3:20   0.00   74.4    73    4.4   139     6.5    0.00 
 244    3:25   0.00   74.0    74    4.1   133     6.5    0.00 
 244    3:30   0.00   73.9    74    4.5   128     6.5    0.00 
 244    3:35   0.00   74.1    73    5.4   126     8.2    0.00 
 244    3:40   0.00   74.1    73    4.9   124     8.2    0.00 
 244    3:45   0.00   74.3    72    4.1   137     6.0    0.00 
 244    3:50   0.00   74.2    72    4.1   130     6.0    0.00 
 244    3:55   0.00   74.3    72    3.9   125     6.0    0.00 
 244    4:00   0.00   74.4    71    3.6   129     5.4    0.00 
 244    4:05   0.00   74.5    70    2.7   142     4.3    0.00 
 244    4:10   0.00   74.7    70    3.2   137     4.9    0.00 
 244    4:15   0.00   74.7    69    2.9   134     4.9    0.00 
 244    4:20   0.00   74.8    69    2.8   136     4.3    0.00 
 244    4:25   0.00   74.9    68    3.2   160     4.9    0.00 
 244    4:30   0.00   74.8    69    3.4   165     4.9    0.00 
 244    4:35   0.00   74.4    70    3.9   148     5.4    0.00 
 244    4:40   0.00   73.9    72    3.5   131     5.4    0.00 
 244    4:45   0.00   74.0    71    4.0   128     6.0    0.00 
 244    4:50   0.00   74.4    69    3.9   129     7.1    0.00 
 244    4:55   0.00   74.6    69    2.9   140     4.9    0.00 
 244    5:00   0.00   74.6    68    3.6   170     5.4    0.00 
 244    5:05   0.00   75.1    66    3.2   183     6.0    0.00 
 244    5:10   0.00   75.1    66    3.3   183     4.3    0.00 
 244    5:15   0.00   74.8    67    3.3   178     4.9    0.00 
 244    5:20   0.00   74.4    69    3.1   164     4.3    0.00 
 244    5:25   0.00   74.4    68    3.5   175     5.4    0.00 
 244    5:30   0.00   74.9    67    3.5   180     4.9    0.00 
 244    5:35   0.00   74.8    67    3.2   173     4.9    0.00 
 244    5:40   0.00   74.7    67    2.8   168     4.9    0.00 
 244    5:45   0.00   74.7    67    2.1   162     3.2    0.00 
 244    5:50   0.00   75.1    65    2.8   176     4.3    0.00 
 244    5:55   0.00   75.6    64    2.5   171     3.8    0.00 
 244    6:00   0.00   76.0    62    3.1   192     4.9    0.00 
 244    6:05   0.00   76.6    61    4.5   203     7.1    0.00 
 244    6:10   0.01   76.8    61    4.8   203     6.5    0.00 
 244    6:15   0.01   76.7    62    4.5   201     6.5    0.00 
 244    6:20   0.02   76.9    62    4.8   196     7.1    0.00 
 244    6:25   0.03   76.6    63    2.9   172     7.1    0.00 
 244    6:30   0.04   76.0    64    3.1   140     5.4    0.00 
 244    6:35   0.06   76.0    64    3.8   127     6.0    0.00 
 244    6:40   0.07   76.3    63    5.2   116     7.1    0.00 
 244    6:45   0.08   76.6    63    5.8   113     7.1    0.00 
 244    6:50   0.09   76.7    63    4.7   112     7.1    0.00 
 244    6:55   0.11   76.5    64    4.9    97     6.5    0.00 
 244    7:00   0.13   75.8    68    5.2    88     7.7    0.00 
 244    7:05   0.14   75.1    70    5.9    96     8.2    0.00 
 244    7:10   0.16   75.3    70    5.9    97     7.7    0.00 
 244    7:15   0.17   75.3    70    5.6    95     7.7    0.00 
 244    7:20   0.19   75.5    68    6.1    96     7.7    0.00 
 244    7:25   0.20   75.5    69    6.2   100     7.7    0.00 
 244    7:30   0.22   75.8    68    6.6   100     8.2    0.00 
 244    7:35   0.24   76.0    67    7.4   105     9.9    0.00 
 244    7:40   0.25   76.2    65    7.9    98     9.9    0.00 
 244    7:45   0.27   76.7    64    7.6    99    10.5    0.00 
 244    7:50   0.29   77.3    62    6.5    98     9.9    0.00 
 244    7:55   0.31   77.5    61    6.7    95     9.9    0.00 
 244    8:00   0.32   77.6    61    7.3    92    11.6    0.00 
 244    8:05   0.34   77.7    61    6.5    94    10.5    0.00 
 244    8:10   0.36   77.9    60    6.3   108    10.5    0.00 
 244    8:15   0.37   77.9    60    6.8   114    10.5    0.00 
 244    8:20   0.39   78.1    60    6.4   113     9.9    0.00 
 244    8:25   0.41   78.4    59    6.3   110     9.3    0.00 
 244    8:30   0.42   78.5    58    6.3   115    10.5    0.00 
 244    8:35   0.44   78.4    58    6.5   120    10.5    0.00 
 244    8:40   0.46   78.7    59    6.4   120     9.9    0.00 
 244    8:45   0.47   78.8    59    6.2    98     8.8    0.00 
 244    8:50   0.49   79.0    58    6.4   122    10.5    0.00 
 244    8:55   0.50   79.1    58    6.6   120     9.3    0.00 
 244    9:00   0.52   79.2    56    7.1   116    10.5    0.00 
 244    9:05   0.54   79.7    55    6.7   111    12.1    0.00 
 244    9:10   0.55   79.9    54    7.3   121    12.1    0.00 
 244    9:15   0.57   80.0    54    7.0   108    10.5    0.00 
 244    9:20   0.58   80.3    54    7.1   119     9.9    0.00 
 244    9:25   0.59   80.4    54    7.7   125     9.9    0.00 
 244    9:30   0.61   80.6    54    7.1   119     9.9    0.00 
 244    9:35   0.62   81.3    54    6.1   107     9.9    0.00 
 244    9:40   0.63   81.9    52    5.5   111     8.2    0.00 
 244    9:45   0.65   82.3    52    5.5   128     9.9    0.00 
 244    9:50   0.66   82.3    51    6.0   122     8.8    0.00 
 244    9:55   0.67   82.2    50    6.2   137     9.3    0.00 
 244   10:00   0.69   82.9    49    5.0   101     7.1    0.00 
 244   10:05   0.70   82.5    50    5.4   116     9.3    0.00 
 244   10:10   0.71   83.2    50    5.6   117     9.3    0.00 
 244   10:15   0.72   83.4    49    5.6   103     8.8    0.00 
 244   10:20   0.73   83.2    49    5.6   113     9.3    0.00 
 244   10:25   0.74   83.8    48    5.5   110     8.8    0.00 
 244   10:30   0.75   84.4    48    5.2   100     8.2    0.00 
 244   10:35   0.76   84.3    48    6.6   116    11.6    0.00 
 244   10:40   0.77   83.5    49    5.6    83     9.3    0.00 
 244   10:45   0.78   84.1    48    6.4   123    10.5    0.00 
 244   10:50   0.79   84.7    47    6.7   125    12.1    0.00 
 244   10:55   0.79   84.4    47    7.3   112    12.1    0.00 
 244   11:00   0.80   84.6    47    6.4   116    11.0    0.00 
 244   11:05   0.81   84.5    46    7.2   106    11.6    0.00 
 244   11:10   0.81   84.9    46    7.4   112    11.6    0.00 
 244   11:15   0.82   85.0    45    6.9   128    10.5    0.00 
 244   11:20   0.83   85.3    45    7.4   101    12.7    0.00 
 244   11:25   0.83   85.7    44    9.0    91    13.8    0.00 
 244   11:30   0.84   85.9    44    8.8   103    13.8    0.00 
 244   11:35   0.84   86.2    43    7.8   119    12.1    0.00 
 244   11:40   0.85   86.8    41    7.6    95    12.1    0.00 
 244   11:45   0.85   86.9    41    7.7    88    12.1    0.00 
 244   11:50   0.86   87.4    41    4.9   130     8.8    0.00 
 244   11:55   0.86   87.7    39    4.5   125     7.7    0.00 
 244   12:00   0.86   88.2    38    5.0   175     9.3    0.00 
 244   12:05   0.87   87.8    38    4.6   130     9.9    0.00 
 244   12:10   0.87   88.4    37    5.3   153     9.3    0.00 
 244   12:15   0.87   89.3    37    2.9   104     8.8    0.00 
 244   12:20   0.87   90.9    35    5.3   178    11.0    0.00 
 244   12:25   0.87   89.9    35    4.2   192     9.9    0.00 
 244   12:30   0.87   90.9    35    3.8   199     8.2    0.00 
 244   12:35   0.87   91.4    33    5.7   176    10.5    0.00 
 244   12:40   0.87   90.5    34    5.7   146    11.0    0.00 
 244   12:45   0.87   89.6    35    6.1   148    10.5    0.00 
 244   12:50   0.87   89.4    36    6.2   124    13.3    0.00 
 244   12:55   0.87   89.5    35    6.7   124    12.7    0.00 
 244   13:00   0.86   89.4    35    5.0   109     8.8    0.00 
 244   13:05   0.86   89.4    35    6.1   113    12.7    0.00 
 244   13:10   0.86   90.7    33    4.5   189     8.8    0.00 
 244   13:15   0.85   92.4    32    6.1   168    12.1    0.00 
 244   13:20   0.85   92.5    31    5.8   208     9.3    0.00 
 244   13:25   0.85   93.1    31    5.7   190    10.5    0.00 
 244   13:30   0.84   94.1    30    3.2    84     7.7    0.00 
 244   13:35   0.83   93.3    31    3.8   200     6.5    0.00 
 244   13:40   0.83   93.7    31    4.6   186     8.8    0.00 
 244   13:45   0.82   92.8    32    5.0   184    10.5    0.00 
 244   13:50   0.82   92.4    32    3.6   179     8.2    0.00 
 244   13:55   0.81   92.2    32    5.1    96    10.5    0.00 
 244   14:00   0.80   94.0    31    5.0   184    11.0    0.00 
 244   14:05   0.80   93.6    30    6.4   204    12.7    0.00 
 244   14:10   0.79   93.2    31    4.3   250     9.9    0.00 
 244   14:15   0.78   93.2    31    4.4   258     8.8    0.00 
 244   14:20   0.77   92.9    31    2.3    17     7.1    0.00 
 244   14:25   0.76   93.9    30    5.2   266     9.3    0.00 
 244   14:30   0.69   94.7    30    3.9    59     9.3    0.00 
 244   14:35   0.75   95.0    30    3.8   216     9.9    0.00 
 244   14:40   0.77   94.6    30    3.2   109     6.0    0.00 
 244   14:45   0.71   95.0    29    3.4   262     7.1    0.00 
 244   14:50   0.78   93.3    30    3.2   321     7.1    0.00 
 244   14:55   0.78   94.4    30    5.6   223    10.5    0.00 
 244   15:00   0.75   94.9    29    5.8   230    11.6    0.00 
 244   15:05   0.76   93.9    29    3.1   213     8.2    0.00 
 244   15:10   0.75   94.2    29    3.0   275     9.3    0.00 
 244   15:15   0.74   94.8    28    4.3   227    10.5    0.00 
 244   15:20   0.73   94.9    26    3.0   239     8.2    0.00 
 244   15:25   0.52   95.4    26    3.9   199    11.0    0.00 
 244   15:30   0.21   93.2    29    6.7   201    11.0    0.00 
 244   15:35   0.13   92.5    30    4.5   221    12.1    0.00 
 244   15:40   0.15   92.4    30    4.1   147     7.7    0.00 
 244   15:45   0.46   92.4    30    2.9   140     8.2    0.00 
 244   15:50   0.71   93.4    30    2.1   142     7.1    0.00 
 244   15:55   0.67   94.8    28    3.7   152    12.1    0.00 
 244   16:00   0.64   96.8    27    3.8   111     9.3    0.00 
 244   16:05   0.37   98.2    26    5.7   164    10.5    0.00 
 244   16:10   0.59   97.1    26    4.4   167     8.2    0.00 
 244   16:15   0.60   97.3    26    3.2   144     8.2    0.00 
 244   16:20   0.58   96.7    26    3.8    89     8.8    0.00 
 244   16:25   0.57   96.4    27    3.8   152     7.7    0.00 
 244   16:30   0.55   94.7    29    4.3   102     7.7    0.00 
 244   16:35   0.52   94.5    30    3.1   150     7.7    0.00 
 244   16:40   0.48   95.0    29    4.5   152     8.8    0.00 
 244   16:45   0.44   93.3    30    3.4   155     6.5    0.00 
 244   16:50   0.42   94.6    29    5.3   168    13.8    0.00 
 244   16:55   0.35   95.1    28    7.1   152    13.3    0.00 
 244   17:00   0.11   93.0    31    3.2   162     6.5    0.00 
 244   17:05   0.08   92.7    31    3.9   163     7.1    0.00 
 244   17:10   0.08   92.6    31    5.4   191    11.6    0.00 
 244   17:15   0.08   91.5    33    6.5   141    11.0    0.00 
 244   17:20   0.23   91.2    33    6.9   118    12.1    0.00 
 244   17:25   0.15   91.3    33    7.9   108    13.8    0.00 
 244   17:30   0.13   90.6    34    5.9   133    11.0    0.00 
 244   17:35   0.28   90.6    34    6.3   119    11.0    0.00 
 244   17:40   0.28   91.1    33    8.0   119    13.3    0.00 
 244   17:45   0.27   90.6    34    8.5   112    13.3    0.00 
 244   17:50   0.26   90.7    34    6.0   110     9.9    0.00 
 244   17:55   0.26   91.1    33    5.4   123     7.7    0.00 
 244   18:00   0.25   91.3    33    5.7   126     8.8    0.00 
 244   18:05   0.22   91.0    33    7.1   117    11.0    0.00 
 244   18:10   0.19   90.8    34    7.6   119    11.0    0.00 
 244   18:15   0.16   90.4    33    8.1   120    15.5    0.00 
 244   18:20   0.14   89.7    35   10.2   124    16.0    0.00 
 244   18:25   0.09   88.8    36    7.9   127    14.4    0.00 
 244   18:30   0.06   88.0    37    9.9   118    14.4    0.00 
 244   18:35   0.05   88.0    37   11.1   123    17.7    0.00 
 244   18:40   0.03   88.0    37    9.9   120    14.4    0.00 
 244   18:45   0.01   87.8    37    9.3   124    14.9    0.00 
 244   18:50   0.01   87.4    38    9.2   119    12.7    0.00 
 244   18:55   0.00   87.3    38    7.9   123    11.6    0.00 
 244   19:00   0.00   87.0    38    6.3   122     8.8    0.00 
 244   19:05   0.00   86.9    38    6.2   133     9.3    0.00 
 244   19:10   0.00   86.9    38    6.0   124     8.8    0.00 
 244   19:15   0.00   86.9    38    5.9   130     7.7    0.00 
 244   19:20   0.00   86.7    38    5.4   114     7.1    0.00 
 244   19:25   0.00   86.5    38    4.0   120     7.1    0.00 
 244   19:30   0.00   86.4    38    2.8   117     4.9    0.00 
 244   19:35   0.00   86.5    38    3.9   123     6.0    0.00 
 244   19:40   0.00   86.5    38    3.1   114     4.9    0.00 
 244   19:45   0.00   86.7    37    2.4   132     3.8    0.00 
 244   19:50   0.00   86.9    37    2.0   131     3.8    0.00 
 244   19:55   0.00   86.7    38    1.0   132     3.2    0.00 
 244   20:00   0.00   86.7    37    1.9   117     3.2    0.00 
 244   20:05   0.00   86.8    37    1.4   159     4.3    0.00 
 244   20:10   0.00   86.9    37    2.9   157     4.3    0.00 
 244   20:15   0.00   86.9    38    3.4   146     6.0    0.00 
 244   20:20   0.00   86.9    38    3.7   183     6.0    0.00 
 244   20:25   0.00   87.2    38    4.0   202     7.1    0.00 
 244   20:30   0.00   87.4    38    4.0   223     8.2    0.00 
 244   20:35   0.00   87.4    39    3.8   223     7.1    0.00 
 244   20:40   0.00   87.1    40    3.5   214     7.7    0.00 
 244   20:45   0.00   86.9    41    2.2   194     5.4    0.00 
 244   20:50   0.00   86.6    44    2.3    93     4.9    0.00 
 244   20:55   0.00   86.2    45    2.8    83     6.5    0.00 
 244   21:00   0.00   85.8    47    3.3    55    11.6    0.00 
 244   21:05   0.00   85.6    49    4.6    61     8.2    0.00 
 244   21:10   0.00   85.4    49    4.5    71     8.8    0.00 
 244   21:15   0.00   85.2    49    3.2    56     8.2    0.00 
 244   21:20   0.00   85.1    50    2.8    72     8.2    0.00 
 244   21:25   0.00   84.9    50    3.4    77     6.0    0.00 
 244   21:30   0.00   84.8    50    2.9    61     5.4    0.00 
 244   21:35   0.00   84.6    50    3.1    60     5.4    0.00 
 244   21:40   0.00   84.4    51    3.3    77     6.5    0.00 
 244   21:45   0.00   84.4    51    3.1    88     6.5    0.00 
 244   21:50   0.00   84.4    51    2.8    95     6.0    0.00 
 244   21:55   0.00   84.1    52    3.4    66     6.5    0.00 
 244   22:00   0.00   84.0    52    3.1    79     6.0    0.00 
 244   22:05   0.00   83.9    52    3.4    84     6.5    0.00 
 244   22:10   0.00   83.8    52    3.2   102     7.7    0.00 
 244   22:15   0.00   83.7    52    2.8    85     6.5    0.00 
 244   22:20   0.00   83.5    53    1.7    91     4.3    0.00 
 244   22:25   0.00   83.2    53    2.4    70     5.4    0.00 
 244   22:30   0.00   83.3    53    1.2   145     4.3    0.00 
 244   22:35   0.00   83.2    53    1.5   186     4.9    0.00 
 244   22:40   0.00   83.2    53    1.5   218     5.4    0.00 
 244   22:45   0.00   83.3    53    2.1   239     4.3    0.00 
 244   22:50   0.00   83.2    53    0.7   112     3.2    0.00 
 244   22:55   0.00   83.1    53    1.2   258     3.8    0.00 
 244   23:00   0.00   83.2    53    1.0   237     2.6    0.00 
 244   23:05   0.00   83.3    53    3.0   221     4.9    0.00 
 244   23:10   0.00   83.6    52    3.8   214     5.4    0.00 
 244   23:15   0.00   83.6    52    5.1   215     7.7    0.00 
 244   23:20   0.00   83.4    52    5.1   209     8.8    0.00 
 244   23:25   0.00   83.2    53    3.5   213     6.5    0.00 
 244   23:30   0.00   83.1    53    4.4   214     7.7    0.00 

Return to Weather Top graphs page.


Western Regional Climate Center,wrcc@dri.edu